Time;durP1;ratioP1;P1;durP2;ratioP2;P2;SDS_P1;SDS_P2;PMS_P1;PMS_P2;Temp;Humidity;BMP_temperature;BMP_pressure;BME280_temperature;BME280_humidity;BME280_pressure;Samples;Min_cycle;Max_cycle;Signal;HPM_P1;HPM_P2
2023/02/23 00:01:28;;;;;;;3.80;3.50;;;10.10;61.30;;;;;;4927307;29;20036;-76
2023/02/23 00:03:56;;;;;;;3.75;3.38;;;10.10;61.40;;;;;;4926604;29;20479;-77
2023/02/23 00:06:25;;;;;;;4.35;3.97;;;10.10;61.40;;;;;;4919865;29;20138;-76
2023/02/23 00:08:51;;;;;;;4.20;3.90;;;10.10;61.40;;;;;;4920408;29;20505;-75
2023/02/23 00:11:18;;;;;;;4.40;4.10;;;10.10;61.50;;;;;;4923849;29;20130;-75
2023/02/23 00:13:45;;;;;;;4.10;3.80;;;10.10;61.60;;;;;;4920658;29;20059;-75
2023/02/23 00:16:14;;;;;;;4.50;4.10;;;10.00;61.40;;;;;;4925492;29;20040;-74
2023/02/23 00:19:01;;;;;;;4.95;4.45;;;10.10;61.60;;;;;;4925673;29;20155;-75
2023/02/23 00:21:30;;;;;;;4.95;4.57;;;10.00;61.50;;;;;;4926216;29;20046;-75
2023/02/23 00:24:01;;;;;;;4.80;4.40;;;10.00;61.50;;;;;;4925751;29;20508;-75
2023/02/23 00:26:33;;;;;;;4.80;4.43;;;10.00;61.60;;;;;;4925153;29;20086;-75
2023/02/23 00:29:11;;;;;;;5.50;5.10;;;10.00;61.60;;;;;;4922524;29;20036;-75
2023/02/23 00:31:38;;;;;;;5.07;4.60;;;10.00;61.70;;;;;;4923729;29;20040;-76
2023/02/23 00:34:06;;;;;;;5.13;4.72;;;10.00;61.60;;;;;;4926172;29;20384;-76
2023/02/23 00:36:34;;;;;;;4.93;4.47;;;9.90;61.50;;;;;;4923383;29;20042;-75
2023/02/23 00:39:10;;;;;;;5.60;5.13;;;9.90;61.60;;;;;;4925596;29;20152;-75
2023/02/23 00:41:36;;;;;;;5.00;4.60;;;9.90;61.60;;;;;;4925098;29;20046;-76
2023/02/23 00:44:02;;;;;;;5.13;4.68;;;9.90;61.60;;;;;;4900035;29;20036;-75
2023/02/23 00:46:29;;;;;;;4.93;4.57;;;9.90;61.60;;;;;;4922720;29;20079;-76
2023/02/23 00:48:57;;;;;;;5.22;4.32;;;9.90;61.60;;;;;;4925162;29;20086;-76
2023/02/23 00:51:31;;;;;;;4.97;4.57;;;9.90;61.60;;;;;;4908914;29;20141;-76
2023/02/23 00:53:59;;;;;;;5.10;4.68;;;9.90;61.60;;;;;;4923834;29;20032;-76
2023/02/23 00:56:26;;;;;;;4.60;4.30;;;9.90;61.70;;;;;;4925934;29;20039;-76
2023/02/23 00:58:52;;;;;;;5.10;4.63;;;9.90;61.70;;;;;;4923109;29;20499;-75
2023/02/23 01:01:19;;;;;;;4.80;4.40;;;9.90;61.70;;;;;;4921362;29;20043;-75
2023/02/23 01:03:45;;;;;;;4.63;4.22;;;9.90;61.70;;;;;;4925344;29;20032;-75
2023/02/23 01:06:14;;;;;;;4.20;3.80;;;9.90;61.70;;;;;;4922751;29;20064;-75
2023/02/23 01:08:42;;;;;;;5.07;4.68;;;9.90;61.80;;;;;;4924628;29;20480;-76
2023/02/23 01:11:15;;;;;;;4.55;4.25;;;9.90;61.80;;;;;;4919173;29;20032;-76
2023/02/23 01:13:45;;;;;;;4.28;3.95;;;9.90;61.80;;;;;;4925569;29;20400;-76
2023/02/23 01:16:14;;;;;;;4.80;4.40;;;9.90;61.80;;;;;;4919441;29;20548;-75
2023/02/23 01:18:43;;;;;;;4.82;4.43;;;9.90;61.80;;;;;;4925810;29;20032;-75
2023/02/23 01:21:21;;;;;;;4.35;4.05;;;9.90;61.80;;;;;;4925558;29;20040;-75
2023/02/23 01:23:48;;;;;;;4.10;3.78;;;9.90;61.90;;;;;;4922295;29;20475;-75
2023/02/23 01:26:20;;;;;;;4.82;3.92;;;9.90;61.80;;;;;;4924013;29;20047;-75
2023/02/23 01:28:55;;;;;;;4.10;3.78;;;9.90;61.90;;;;;;4922353;29;20043;-76
2023/02/23 01:31:22;;;;;;;3.85;3.55;;;9.80;61.70;;;;;;4922871;29;20044;-75
2023/02/23 01:33:55;;;;;;;4.03;3.63;;;9.80;61.70;;;;;;4922104;29;20619;-75
2023/02/23 01:36:21;;;;;;;3.67;3.35;;;9.80;61.80;;;;;;4923151;29;20090;-75
2023/02/23 01:38:48;;;;;;;3.50;3.20;;;9.80;61.80;;;;;;4922913;29;20031;-75
2023/02/23 01:41:15;;;;;;;5.10;3.55;;;9.80;61.80;;;;;;4922690;29;20602;-75
2023/02/23 01:44:04;;;;;;;3.55;3.25;;;9.80;61.80;;;;;;4922059;29;20043;-75
2023/02/23 01:46:44;;;;;;;3.30;3.00;;;9.80;61.80;;;;;;4921078;29;20052;-75
2023/02/23 01:49:16;;;;;;;2.90;2.70;;;9.80;61.80;;;;;;4923528;29;20043;-75
2023/02/23 01:51:48;;;;;;;3.00;2.78;;;9.70;61.60;;;;;;4922989;29;20090;-76
2023/02/23 01:54:20;;;;;;;4.03;3.08;;;9.70;61.60;;;;;;4924582;29;20739;-76
2023/02/23 01:56:56;;;;;;;3.25;2.80;;;9.70;61.70;;;;;;4923291;29;20122;-76
2023/02/23 01:59:47;;;;;;;4.00;2.80;;;9.70;61.70;;;;;;4916263;29;20047;-76
2023/02/23 02:02:16;;;;;;;4.03;2.42;;;9.70;61.60;;;;;;4922258;29;20395;-76
2023/02/23 02:04:43;;;;;;;3.10;2.70;;;9.80;61.80;;;;;;4925075;29;20042;-76
2023/02/23 02:07:29;;;;;;;3.67;2.38;;;9.70;61.60;;;;;;4924817;29;20499;-76
2023/02/23 02:12:45;;;;;;;4.05;2.58;;;9.70;61.60;;;;;;4922292;29;20035;-76
2023/02/23 02:15:18;;;;;;;3.78;2.17;;;9.70;61.60;;;;;;4922802;29;20059;-76
2023/02/23 02:18:07;;;;;;;2.35;2.00;;;9.70;61.60;;;;;;4924571;29;20044;-75
2023/02/23 02:20:54;;;;;;;2.83;1.92;;;9.60;61.40;;;;;;4921331;29;20340;-75
2023/02/23 02:23:44;;;;;;;4.10;2.53;;;9.60;61.40;;;;;;4924699;29;20027;-75
2023/02/23 02:26:32;;;;;;;2.30;1.95;;;9.60;61.40;;;;;;4922386;29;20047;-76
2023/02/23 02:29:25;;;;;;;3.20;2.40;;;9.60;61.40;;;;;;4921270;29;20090;-76
2023/02/23 02:32:01;;;;;;;4.28;2.22;;;9.60;61.40;;;;;;4923025;29;20039;-76
2023/02/23 02:35:17;;;;;;;3.00;2.40;;;9.60;61.40;;;;;;4922520;29;20448;-75
2023/02/23 02:38:02;;;;;;;3.58;2.40;;;9.50;61.30;;;;;;4907958;29;20412;-75
2023/02/23 02:40:53;;;;;;;2.95;2.35;;;9.50;61.30;;;;;;4916363;29;20048;-75
2023/02/23 02:43:25;;;;;;;4.88;2.08;;;9.50;61.40;;;;;;4919535;29;20046;-76
2023/02/23 02:46:04;;;;;;;2.35;2.13;;;9.50;61.40;;;;;;4914408;29;20412;-75
2023/02/23 02:48:44;;;;;;;2.38;1.88;;;9.50;61.40;;;;;;4926664;29;20027;-75
2023/02/23 02:51:21;;;;;;;4.57;2.38;;;9.50;61.50;;;;;;4924088;29;20035;-76
2023/02/23 02:54:05;;;;;;;4.80;2.67;;;9.50;61.50;;;;;;4933783;29;20042;-76
2023/02/23 02:56:39;;;;;;;2.40;2.20;;;9.40;61.40;;;;;;4923128;29;20031;-76
2023/02/23 04:18:22;;;;;;;3.08;1.20;;;9.10;61.20;;;;;;4929075;29;20634;-76
2023/02/23 04:20:48;;;;;;;3.45;1.27;;;9.00;61.00;;;;;;4927521;29;20024;-76
2023/02/23 04:23:14;;;;;;;2.38;1.33;;;9.10;61.70;;;;;;4930367;29;20048;-76
2023/02/23 04:25:40;;;;;;;4.07;2.00;;;9.10;61.20;;;;;;4928962;29;20399;-75
2023/02/23 04:28:06;;;;;;;2.35;1.70;;;9.00;61.00;;;;;;4922994;29;20554;-75
2023/02/23 04:30:32;;;;;;;1.75;1.33;;;9.00;61.00;;;;;;4929645;29;20444;-75
2023/02/23 04:32:58;;;;;;;1.55;1.45;;;9.00;61.00;;;;;;4928906;29;20098;-74
2023/02/23 04:35:26;;;;;;;1.40;1.30;;;9.00;61.00;;;;;;4929760;29;20032;-74
2023/02/23 04:37:52;;;;;;;2.17;1.80;;;9.00;61.00;;;;;;4927865;29;20035;-75
2023/02/23 04:40:18;;;;;;;1.85;1.50;;;9.00;61.00;;;;;;4929500;29;20035;-75
2023/02/23 04:42:44;;;;;;;2.10;1.58;;;9.00;61.00;;;;;;4929831;29;20031;-76
2023/02/23 04:45:10;;;;;;;2.10;1.80;;;9.00;61.00;;;;;;4927294;29;20516;-75
2023/02/23 04:47:36;;;;;;;3.25;2.00;;;9.00;61.00;;;;;;4926068;29;20456;-75
2023/02/23 04:50:02;;;;;;;1.75;1.65;;;9.00;61.00;;;;;;4930080;29;20039;-75
2023/02/23 04:52:30;;;;;;;2.53;1.80;;;9.00;61.00;;;;;;4929208;29;20074;-75
2023/02/23 04:54:56;;;;;;;3.67;1.88;;;9.00;61.00;;;;;;4930128;29;20032;-75
2023/02/23 04:57:22;;;;;;;4.90;2.42;;;9.00;61.00;;;;;;4929795;29;20027;-75
2023/02/23 04:59:48;;;;;;;3.30;2.17;;;9.00;61.00;;;;;;4923935;29;20032;-75
2023/02/23 05:02:14;;;;;;;3.10;2.00;;;9.00;61.00;;;;;;4930308;29;20028;-75
2023/02/23 05:04:40;;;;;;;4.13;2.67;;;9.00;61.00;;;;;;4930402;29;20039;-76
2023/02/23 05:07:06;;;;;;;2.25;1.98;;;9.00;61.00;;;;;;4925169;29;20047;-76
2023/02/23 05:09:32;;;;;;;3.50;2.42;;;9.00;60.90;;;;;;4929276;29;20388;-76
2023/02/23 05:11:58;;;;;;;4.65;2.53;;;9.00;60.90;;;;;;4929963;29;20138;-75
2023/02/23 05:14:24;;;;;;;3.90;2.83;;;9.00;60.90;;;;;;4927469;29;20495;-75
2023/02/23 05:16:50;;;;;;;3.85;2.50;;;9.00;60.90;;;;;;4929778;29;20622;-75
2023/02/23 05:19:16;;;;;;;4.18;2.78;;;9.00;60.90;;;;;;4924993;29;20245;-79
2023/02/23 05:21:42;;;;;;;3.67;2.47;;;9.00;60.90;;;;;;4930126;29;20034;-75
2023/02/23 05:24:08;;;;;;;4.00;2.67;;;9.00;60.90;;;;;;4928034;29;20354;-81
2023/02/23 05:26:34;;;;;;;4.32;3.40;;;9.00;61.50;;;;;;4923868;29;20036;-75
2023/02/23 05:29:00;;;;;;;3.47;3.15;;;9.00;61.00;;;;;;4918389;29;20082;-76
2023/02/23 05:31:27;;;;;;;4.20;2.78;;;8.90;60.80;;;;;;4929158;29;20052;-77
2023/02/23 05:33:53;;;;;;;3.50;2.65;;;9.00;61.00;;;;;;4925950;29;20036;-75
2023/02/23 05:36:20;;;;;;;3.50;2.80;;;9.00;61.00;;;;;;4927790;29;20562;-75
2023/02/23 05:38:47;;;;;;;4.43;2.90;;;9.00;61.00;;;;;;4928513;29;20035;-75
2023/02/23 05:41:17;;;;;;;6.15;3.40;;;8.90;60.90;;;;;;4927439;29;20059;-75
2023/02/23 05:43:42;;;;;;;6.32;3.22;;;8.90;60.90;;;;;;4927249;29;20110;-78
2023/02/23 05:46:11;;;;;;;5.43;3.05;;;8.90;60.90;;;;;;4929211;29;20575;-79
2023/02/23 05:48:37;;;;;;;3.80;3.22;;;8.90;60.90;;;;;;4918899;29;20106;-74
2023/02/23 05:51:05;;;;;;;6.47;3.28;;;8.90;60.90;;;;;;4924813;29;20532;-74
2023/02/23 05:53:31;;;;;;;3.28;2.95;;;8.90;61.00;;;;;;4924652;29;20040;-75
2023/02/23 05:55:58;;;;;;;3.92;3.00;;;8.90;61.00;;;;;;4921067;29;20074;-74
2023/02/23 05:58:24;;;;;;;3.10;2.90;;;8.90;61.10;;;;;;4921505;29;20031;-75
2023/02/23 06:00:50;;;;;;;3.13;2.85;;;8.90;61.10;;;;;;4924868;29;20032;-75
2023/02/23 06:03:17;;;;;;;4.53;3.65;;;8.90;61.20;;;;;;4925034;29;20046;-73
2023/02/23 06:05:49;;;;;;;3.42;2.65;;;8.90;61.20;;;;;;4917646;29;20070;-75
2023/02/23 06:08:15;;;;;;;4.18;3.50;;;8.80;61.10;;;;;;4923864;29;20365;-79
2023/02/23 06:10:41;;;;;;;5.30;3.15;;;8.80;61.20;;;;;;4921261;29;20038;-79
2023/02/23 06:13:07;;;;;;;3.95;3.15;;;8.80;61.20;;;;;;4923466;29;20111;-80
2023/02/23 06:15:32;;;;;;;5.13;3.80;;;8.80;61.20;;;;;;4924627;29;20044;-80
2023/02/23 06:17:58;;;;;;;8.25;4.47;;;8.80;61.30;;;;;;4922313;29;20083;-78
2023/02/23 06:20:24;;;;;;;3.47;3.20;;;8.80;61.30;;;;;;4926715;29;20043;-81
2023/02/23 06:22:50;;;;;;;7.22;3.38;;;8.80;61.40;;;;;;4919683;29;20063;-80
2023/02/23 06:25:16;;;;;;;4.15;3.78;;;8.80;61.50;;;;;;4922796;29;20154;-79
2023/02/23 06:27:44;;;;;;;7.57;3.53;;;8.70;61.40;;;;;;4921162;29;20036;-78
2023/02/23 06:30:10;;;;;;;5.13;3.20;;;8.70;61.30;;;;;;4911353;29;20058;-79
2023/02/23 06:32:37;;;;;;;3.22;2.90;;;8.70;61.90;;;;;;4920822;29;20031;-79
2023/02/23 06:35:07;;;;;;;4.60;3.33;;;8.70;61.40;;;;;;4918995;29;20172;-76
2023/02/23 06:37:34;;;;;;;3.15;2.75;;;8.70;61.40;;;;;;4919042;29;20126;-75
2023/02/23 06:40:00;;;;;;;4.25;3.20;;;8.70;61.40;;;;;;4917261;29;20098;-75
2023/02/23 06:42:25;;;;;;;3.85;3.50;;;8.70;61.50;;;;;;4921755;29;20559;-75
2023/02/23 06:44:51;;;;;;;3.30;3.00;;;8.70;61.50;;;;;;4918311;29;20031;-78
2023/02/23 06:47:18;;;;;;;8.43;3.33;;;8.70;61.60;;;;;;4922573;29;20039;-83
2023/02/23 06:49:45;;;;;;;5.75;4.13;;;8.70;61.70;;;;;;4923719;29;20043;-78
2023/02/23 06:52:12;;;;;;;4.25;2.25;;;8.80;62.20;;;;;;4924043;29;20122;-81
2023/02/23 06:54:40;;;;;;;5.97;3.22;;;8.80;62.50;;;;;;4924775;29;20042;-80
2023/02/23 06:57:08;;;;;;;6.63;3.35;;;8.90;62.90;;;;;;4918642;29;20076;-77
2023/02/23 06:59:35;;;;;;;5.82;3.22;;;8.90;63.20;;;;;;4918084;29;20032;-76
2023/02/23 07:02:04;;;;;;;5.22;3.22;;;9.00;63.60;;;;;;4920506;29;20462;-76
2023/02/23 07:04:31;;;;;;;4.07;2.78;;;9.10;64.20;;;;;;4920948;29;20053;-82
2023/02/23 07:06:57;;;;;;;4.95;3.90;;;9.20;64.60;;;;;;4918424;29;20066;-89
2023/02/23 07:09:23;;;;;;;6.57;3.22;;;9.30;65.10;;;;;;4918463;29;20040;-87
2023/02/23 07:11:49;;;;;;;5.78;3.30;;;9.40;65.40;;;;;;4923718;29;20514;-86
2023/02/23 07:14:15;;;;;;;4.75;2.95;;;9.50;65.70;;;;;;4925003;29;20027;-86
2023/02/23 07:16:41;;;;;;;2.95;2.47;;;9.60;66.10;;;;;;4926282;29;20035;-83
2023/02/23 07:19:07;;;;;;;4.30;3.28;;;9.70;66.40;;;;;;4929739;28;20132;-83
2023/02/23 07:21:33;;;;;;;3.20;2.38;;;9.90;66.90;;;;;;4918241;29;20647;-82
2023/02/23 07:24:02;;;;;;;4.00;2.60;;;9.90;66.90;;;;;;4918361;29;20066;-83
2023/02/23 07:26:27;;;;;;;4.15;2.70;;;10.10;67.20;;;;;;4923258;29;20047;-84
2023/02/23 07:28:53;;;;;;;4.82;2.35;;;10.10;67.20;;;;;;4920395;29;20037;-84
2023/02/23 07:31:19;;;;;;;4.13;2.42;;;10.20;67.30;;;;;;4931310;29;20043;-82
2023/02/23 07:33:45;;;;;;;3.10;2.28;;;10.20;67.30;;;;;;4924717;29;20038;-83
2023/02/23 07:36:12;;;;;;;8.57;3.33;;;10.30;67.40;;;;;;4923816;29;20043;-85
2023/02/23 07:38:38;;;;;;;8.27;2.40;;;10.30;67.40;;;;;;4922816;29;20040;-84
2023/02/23 07:41:04;;;;;;;6.13;2.92;;;10.40;67.60;;;;;;4925831;29;20046;-84
2023/02/23 07:43:30;;;;;;;3.47;2.90;;;10.40;67.60;;;;;;4924418;29;20020;-85
2023/02/23 07:46:00;;;;;;;3.45;1.85;;;10.50;67.70;;;;;;4924247;29;20048;-81
2023/02/23 07:48:27;;;;;;;4.15;2.13;;;10.50;67.70;;;;;;4924759;29;20056;-86
2023/02/23 07:50:52;;;;;;;4.97;2.20;;;10.60;67.80;;;;;;4921600;29;20078;-86
2023/02/23 07:53:18;;;;;;;5.03;2.40;;;10.60;68.30;;;;;;4924707;29;20595;-85
2023/02/23 07:55:44;;;;;;;3.47;2.10;;;10.70;68.00;;;;;;4922873;29;20460;-85
2023/02/23 07:58:12;;;;;;;5.63;2.20;;;10.70;67.90;;;;;;4921107;29;20038;-85
2023/02/23 08:00:39;;;;;;;7.72;2.20;;;10.70;67.90;;;;;;4932389;29;20032;-84
2023/02/23 08:03:05;;;;;;;3.78;2.33;;;10.80;68.10;;;;;;4924921;29;20352;-85
2023/02/23 08:05:31;;;;;;;3.45;1.67;;;10.80;68.00;;;;;;4923131;29;20152;-80
2023/02/23 08:07:58;;;;;;;7.47;3.03;;;10.90;68.10;;;;;;4922869;29;20047;-83
2023/02/23 08:10:25;;;;;;;3.50;1.67;;;10.90;68.00;;;;;;4921344;29;20032;-78
2023/02/23 08:12:50;;;;;;;3.60;1.50;;;10.90;67.90;;;;;;4923814;29;20031;-79
2023/02/23 08:15:17;;;;;;;4.90;1.80;;;11.00;68.00;;;;;;4929077;29;20035;-81
2023/02/23 08:17:42;;;;;;;5.28;2.03;;;11.00;67.90;;;;;;4926293;29;20035;-82
2023/02/23 08:20:09;;;;;;;7.13;2.83;;;11.10;68.00;;;;;;4929346;29;20083;-84
2023/02/23 08:22:35;;;;;;;4.38;1.90;;;11.10;68.00;;;;;;4918320;29;20477;-82
2023/02/23 08:25:04;;;;;;;8.20;3.17;;;11.20;68.10;;;;;;4922826;29;20082;-82
2023/02/23 08:27:34;;;;;;;5.88;2.35;;;11.20;68.00;;;;;;4925017;29;20036;-84
2023/02/23 08:30:02;;;;;;;5.05;2.88;;;11.30;68.00;;;;;;4922133;29;20891;-84
2023/02/23 08:32:33;;;;;;;6.05;1.90;;;11.30;67.90;;;;;;4922637;29;20477;-84
2023/02/23 08:35:01;;;;;;;4.60;1.60;;;11.40;67.90;;;;;;4924765;29;20125;-82
2023/02/23 08:37:28;;;;;;;9.52;2.92;;;11.40;67.70;;;;;;4920640;29;20098;-80
2023/02/23 08:39:55;;;;;;;3.38;2.15;;;11.50;67.70;;;;;;4922219;29;20051;-81
2023/02/23 08:42:20;;;;;;;7.53;2.45;;;11.60;67.70;;;;;;4923890;29;20050;-82
2023/02/23 08:44:48;;;;;;;6.10;2.78;;;11.60;67.50;;;;;;4919581;29;20039;-82
2023/02/23 08:47:16;;;;;;;6.70;2.17;;;11.70;67.50;;;;;;4924802;29;20056;-81
2023/02/23 08:49:42;;;;;;;7.72;2.00;;;11.80;67.40;;;;;;4924270;29;20503;-81
2023/02/23 08:52:08;;;;;;;6.20;1.95;;;11.90;67.30;;;;;;4917113;29;20067;-83
2023/02/23 08:54:34;;;;;;;7.05;2.15;;;11.90;67.20;;;;;;4925259;29;20050;-85
2023/02/23 08:57:00;;;;;;;7.35;1.95;;;11.90;67.10;;;;;;4924633;29;20059;-83
2023/02/23 08:59:26;;;;;;;9.38;1.92;;;12.00;67.10;;;;;;4918335;29;20051;-76
2023/02/23 09:01:52;;;;;;;6.90;2.40;;;12.00;66.90;;;;;;4922539;29;20062;-78
2023/02/23 09:04:18;;;;;;;6.93;1.83;;;12.10;66.90;;;;;;4922101;29;20046;-84
2023/02/23 09:06:46;;;;;;;6.60;1.50;;;12.10;66.70;;;;;;4917691;29;20059;-83
2023/02/23 09:09:13;;;;;;;8.43;2.00;;;12.10;66.60;;;;;;4923591;29;20035;-77
2023/02/23 09:11:39;;;;;;;4.78;1.60;;;12.20;66.70;;;;;;4915866;29;20063;-78
2023/02/23 09:14:05;;;;;;;6.05;1.65;;;12.30;66.90;;;;;;4913503;29;20172;-78
2023/02/23 09:16:31;;;;;;;9.18;2.60;;;12.40;67.30;;;;;;4918981;29;20502;-76
2023/02/23 09:18:58;;;;;;;10.05;2.80;;;12.60;67.50;;;;;;4921870;29;20036;-78
2023/02/23 09:21:25;;;;;;;5.05;1.98;;;12.90;67.60;;;;;;4921094;29;20390;-78
2023/02/23 09:23:54;;;;;;;6.90;1.95;;;13.10;67.60;;;;;;4917501;29;20656;-77
2023/02/23 09:26:21;;;;;;;10.95;2.33;;;13.30;67.50;;;;;;4921348;29;20414;-80
2023/02/23 09:28:48;;;;;;;5.70;1.70;;;13.50;67.30;;;;;;4918188;29;20040;-80
2023/02/23 09:31:18;;;;;;;6.18;2.10;;;13.80;67.40;;;;;;4922585;29;20526;-79
2023/02/23 09:33:44;;;;;;;5.10;1.88;;;13.90;67.00;;;;;;4916599;29;20627;-78
2023/02/23 09:36:16;;;;;;;5.18;1.83;;;14.20;67.10;;;;;;4921199;29;20036;-78
2023/02/23 09:38:47;;;;;;;5.93;2.15;;;14.30;66.80;;;;;;4920665;29;20032;-78
2023/02/23 09:41:25;;;;;;;5.50;1.73;;;14.50;66.70;;;;;;4922840;29;20490;-79
2023/02/23 09:44:06;;;;;;;4.47;1.55;;;14.70;66.60;;;;;;4917997;29;20627;-79
2023/02/23 09:46:46;;;;;;;7.70;1.67;;;14.90;66.40;;;;;;4916209;29;20035;-76
2023/02/23 09:49:18;;;;;;;6.43;1.65;;;15.10;66.70;;;;;;4919915;29;20031;-76
2023/02/23 09:51:52;;;;;;;7.10;3.40;;;15.30;66.00;;;;;;4921573;29;20059;-77
2023/02/23 09:54:23;;;;;;;4.65;1.67;;;15.50;65.90;;;;;;4920835;29;20162;-80
2023/02/23 09:56:50;;;;;;;5.80;1.45;;;15.60;65.60;;;;;;4921251;29;20107;-78
2023/02/23 09:59:19;;;;;;;4.88;1.50;;;15.70;65.40;;;;;;4919001;29;20074;-79
2023/02/23 10:01:48;;;;;;;4.68;1.75;;;15.70;65.20;;;;;;4921679;29;20435;-78
2023/02/23 10:04:29;;;;;;;6.40;1.92;;;15.70;64.80;;;;;;4921688;29;20047;-76
2023/02/23 10:07:16;;;;;;;4.57;1.77;;;15.70;64.50;;;;;;4922740;29;20055;-78
2023/02/23 10:09:58;;;;;;;6.47;1.95;;;15.70;64.50;;;;;;4919527;29;20162;-79
2023/02/23 10:12:35;;;;;;;5.00;1.23;;;15.70;64.20;;;;;;4915920;29;20054;-79
2023/02/23 10:15:14;;;;;;;6.57;1.70;;;15.70;64.10;;;;;;4915975;29;20035;-77
2023/02/23 10:18:07;;;;;;;4.38;2.00;;;15.60;63.90;;;;;;4920828;29;20118;-78
2023/02/23 10:20:54;;;;;;;4.50;2.00;;;15.70;64.00;;;;;;4922475;28;20039;-76
2023/02/23 10:23:44;;;;;;;6.85;1.60;;;15.80;63.90;;;;;;4917396;29;20487;-76
2023/02/23 10:26:23;;;;;;;7.28;2.00;;;15.90;63.70;;;;;;4920233;29;20106;-76
2023/02/23 10:28:51;;;;;;;7.07;2.03;;;16.00;63.50;;;;;;4918992;29;20028;-76
2023/02/23 10:31:23;;;;;;;3.63;1.30;;;16.00;63.30;;;;;;4923770;29;20055;-76
2023/02/23 10:33:51;;;;;;;15.52;2.85;;;16.10;63.20;;;;;;4926543;29;20044;-77
2023/02/23 10:36:25;;;;;;;4.80;1.70;;;16.10;62.90;;;;;;4923312;29;20523;-76
2023/02/23 10:38:51;;;;;;;8.80;2.17;;;16.10;62.70;;;;;;4918910;29;20146;-77
2023/02/23 10:41:17;;;;;;;5.70;1.67;;;16.00;62.40;;;;;;4926496;29;20510;-77
2023/02/23 10:43:43;;;;;;;5.93;2.13;;;16.00;62.30;;;;;;4923939;29;20063;-77
2023/02/23 10:46:21;;;;;;;6.28;2.05;;;16.00;62.30;;;;;;4914923;29;20095;-77
2023/02/23 10:48:49;;;;;;;4.43;1.77;;;15.90;61.80;;;;;;4926699;29;20040;-76
2023/02/23 10:51:27;;;;;;;5.97;2.67;;;15.90;62.00;;;;;;4926871;29;20067;-75
2023/02/23 10:53:54;;;;;;;4.25;1.52;;;15.80;61.60;;;;;;4920144;29;20035;-76
2023/02/23 10:56:22;;;;;;;3.88;1.60;;;15.80;61.80;;;;;;4922438;29;20392;-80
2023/02/23 10:58:53;;;;;;;5.38;1.88;;;15.80;61.70;;;;;;4920314;29;20091;-77
2023/02/23 11:01:43;;;;;;;6.13;2.40;;;15.70;61.50;;;;;;4927393;29;20044;-79
2023/02/23 11:04:29;;;;;;;7.35;2.30;;;15.70;61.40;;;;;;4925515;29;20515;-81
2023/02/23 11:07:20;;;;;;;6.25;2.13;;;15.70;61.40;;;;;;4925801;29;20078;-79
2023/02/23 11:09:46;;;;;;;6.70;3.65;;;15.60;61.20;;;;;;4923601;29;20073;-78
2023/02/23 11:12:35;;;;;;;5.68;2.42;;;15.60;61.40;;;;;;4920527;29;20035;-78
2023/02/23 11:15:30;;;;;;;7.95;3.05;;;15.60;61.30;;;;;;4924449;29;20036;-78
2023/02/23 11:18:01;;;;;;;4.43;1.60;;;15.60;61.10;;;;;;4922132;29;20043;-76
2023/02/23 11:20:40;;;;;;;4.70;1.60;;;15.60;61.20;;;;;;4941246;28;20389;-85
2023/02/23 11:23:30;;;;;;;6.13;2.20;;;15.60;60.70;;;;;;4920836;29;20035;-84
2023/02/23 11:25:59;;;;;;;5.68;1.75;;;15.70;60.80;;;;;;4928754;29;20085;-87
2023/02/23 11:28:34;;;;;;;5.80;2.13;;;15.60;60.40;;;;;;4924618;29;20500;-88
2023/02/23 11:31:03;;;;;;;6.32;1.58;;;15.50;60.10;;;;;;4926832;29;20059;-89
2023/02/23 11:33:34;;;;;;;7.50;2.42;;;15.40;59.80;;;;;;4928379;29;20563;-84
2023/02/23 11:36:31;;;;;;;4.68;2.10;;;15.40;60.20;;;;;;4940365;29;20145;-79
2023/02/23 11:39:15;;;;;;;11.05;2.45;;;15.40;59.00;;;;;;4926091;29;20051;-87
2023/02/23 11:41:41;;;;;;;11.10;2.22;;;15.40;58.30;;;;;;4943115;29;20028;-89
2023/02/23 11:44:19;;;;;;;7.40;2.17;;;15.40;58.40;;;;;;4942307;29;20043;-81
2023/02/23 11:46:45;;;;;;;7.18;2.97;;;15.50;58.00;;;;;;4920906;29;20048;-84
2023/02/23 11:49:20;;;;;;;5.85;1.73;;;15.50;58.20;;;;;;4933683;29;20075;-87
2023/02/23 11:51:48;;;;;;;7.55;1.92;;;15.60;58.90;;;;;;4939822;29;20566;-89
2023/02/23 11:54:24;;;;;;;12.32;2.15;;;15.70;58.60;;;;;;4928209;29;20051;-84
2023/02/23 11:56:52;;;;;;;7.88;2.00;;;15.70;58.30;;;;;;4924853;29;20563;-80
2023/02/23 11:59:32;;;;;;;7.78;2.22;;;15.80;58.30;;;;;;4920365;29;20067;-79
2023/02/23 12:02:24;;;;;;;7.05;1.98;;;15.80;58.50;;;;;;4924438;29;20050;-79
2023/02/23 12:05:06;;;;;;;5.57;1.63;;;15.90;57.80;;;;;;4915822;29;20504;-79
2023/02/23 12:07:42;;;;;;;9.77;2.90;;;15.90;57.70;;;;;;4923295;29;20044;-79
2023/02/23 12:10:27;;;;;;;8.48;2.50;;;15.90;57.10;;;;;;4922156;29;20038;-80
2023/02/23 12:13:08;;;;;;;9.55;2.03;;;15.90;56.80;;;;;;4916871;29;20040;-82
2023/02/23 12:15:55;;;;;;;7.97;2.95;;;15.90;56.90;;;;;;4923428;29;20079;-79
2023/02/23 12:18:46;;;;;;;5.60;2.35;;;15.80;56.40;;;;;;4924201;29;20654;-79
2023/02/23 12:21:30;;;;;;;7.05;1.92;;;15.70;56.10;;;;;;4919762;29;20496;-79
2023/02/23 12:24:11;;;;;;;7.18;2.75;;;15.60;56.20;;;;;;4918142;29;20032;-78
2023/02/23 12:27:00;;;;;;;5.18;1.90;;;15.60;56.00;;;;;;4923151;29;20054;-79
2023/02/23 12:29:35;;;;;;;9.23;3.30;;;15.60;55.60;;;;;;4914116;29;20094;-79
2023/02/23 12:32:08;;;;;;;7.18;2.53;;;15.50;55.50;;;;;;4925456;29;20031;-81
2023/02/23 12:34:50;;;;;;;;;;;15.50;55.40;;;;;;4921440;29;20481;-80
2023/02/23 12:37:35;;;;;;;7.07;1.83;;;15.50;55.30;;;;;;4915142;29;19915;-89
2023/02/23 12:40:31;;;;;;;7.05;2.38;;;15.50;55.30;;;;;;4927667;29;20042;-94
2023/02/23 12:43:20;;;;;;;4.68;1.98;;;15.40;54.80;;;;;;4920221;29;20072;-86
2023/02/23 12:46:05;;;;;;;6.55;2.22;;;15.40;55.00;;;;;;4906573;29;20476;-82
2023/02/23 12:49:12;;;;;;;6.03;2.15;;;15.30;54.80;;;;;;4924895;29;20187;-86
2023/02/23 12:51:41;;;;;;;7.75;2.78;;;15.20;54.50;;;;;;4928180;29;20034;-91
2023/02/23 12:54:10;;;;;;;7.05;2.42;;;15.20;55.00;;;;;;4924475;29;20308;-89
2023/02/23 12:56:55;;;;;;;7.47;2.33;;;15.10;54.60;;;;;;4925470;29;20051;-88
2023/02/23 12:59:54;;;;;;;8.77;2.50;;;15.10;54.20;;;;;;4922053;29;20629;-92
2023/02/23 13:02:35;;;;;;;6.88;2.03;;;15.10;54.40;;;;;;4928861;29;20040;-91
2023/02/23 13:05:25;;;;;;;5.40;1.92;;;15.10;54.40;;;;;;4926796;29;20484;-89
2023/02/23 13:08:10;;;;;;;7.07;2.08;;;15.10;54.00;;;;;;4927144;29;20433;-91
2023/02/23 13:11:01;;;;;;;10.30;2.63;;;15.20;54.10;;;;;;4914356;29;20491;-89
2023/02/23 13:13:32;;;;;;;5.82;3.05;;;15.30;54.10;;;;;;4922707;29;20305;-90
2023/02/23 13:16:00;;;;;;;8.20;1.98;;;15.40;54.10;;;;;;4925847;29;20039;-89
2023/02/23 13:18:58;;;;;;;6.82;1.83;;;15.40;53.90;;;;;;4924123;29;20042;-87
2023/02/23 13:21:40;;;;;;;7.57;2.10;;;15.50;53.60;;;;;;5116982;27;21023;-73
2023/02/23 13:24:25;;;;;;;9.45;3.38;;;15.60;53.80;;;;;;5114781;27;20027;-75
2023/02/23 13:27:15;;;;;;;8.52;2.60;;;15.60;53.50;;;;;;5115502;27;20042;-74
2023/02/23 13:29:44;;;;;;;6.93;2.20;;;15.60;53.20;;;;;;5097229;28;20031;-74
2023/02/23 13:32:13;;;;;;;4.57;1.83;;;15.60;53.40;;;;;;5118483;27;20118;-74
2023/02/23 13:34:51;;;;;;;5.78;2.05;;;15.50;53.10;;;;;;5117195;27;20384;-73
2023/02/23 13:37:21;;;;;;;9.68;2.40;;;15.50;53.00;;;;;;5118634;27;20122;-74
2023/02/23 13:40:16;;;;;;;5.40;2.08;;;15.50;53.00;;;;;;5116420;27;20039;-74
2023/02/23 13:43:21;;;;;;;4.68;2.25;;;15.40;52.50;;;;;;5097916;27;20441;-74
2023/02/23 13:45:52;;;;;;;7.10;2.10;;;15.30;52.40;;;;;;5112704;27;20123;-73
2023/02/23 13:48:29;;;;;;;7.10;2.05;;;15.30;52.80;;;;;;5104465;27;20632;-74
2023/02/23 13:51:29;;;;;;;11.95;2.83;;;15.20;52.60;;;;;;5097321;28;20024;-73
2023/02/23 13:54:06;;;;;;;5.50;2.08;;;15.20;52.40;;;;;;5089724;28;20035;-73
2023/02/23 13:56:41;;;;;;;5.38;2.03;;;15.30;52.60;;;;;;5095972;28;20032;-74
2023/02/23 13:59:35;;;;;;;7.15;1.95;;;15.30;52.40;;;;;;5095473;28;20353;-74
2023/02/23 14:02:22;;;;;;;4.40;1.70;;;15.30;52.30;;;;;;5092302;28;20044;-74
2023/02/23 14:04:49;;;;;;;7.97;1.65;;;15.30;52.30;;;;;;5093921;28;20124;-74
2023/02/23 14:07:27;;;;;;;7.35;2.42;;;15.30;52.40;;;;;;5098779;28;20145;-75
2023/02/23 14:09:57;;;;;;;7.15;2.25;;;15.30;52.10;;;;;;5089738;28;20063;-75
2023/02/23 14:12:32;;;;;;;7.15;3.05;;;15.20;52.10;;;;;;5116999;28;20036;-75
2023/02/23 14:15:28;;;;;;;8.95;2.78;;;15.20;52.00;;;;;;5121133;28;20036;-75
2023/02/23 14:17:56;;;;;;;6.90;2.13;;;15.10;51.60;;;;;;5115386;28;20039;-75
2023/02/23 14:20:41;;;;;;;5.47;2.38;;;15.10;52.00;;;;;;5116311;28;20035;-74
2023/02/23 14:23:19;;;;;;;6.43;2.60;;;15.00;51.50;;;;;;5109827;28;20028;-73
2023/02/23 14:26:07;;;;;;;5.20;2.95;;;15.00;51.60;;;;;;5112244;28;20035;-72
2023/02/23 14:28:35;;;;;;;9.10;2.70;;;15.00;51.90;;;;;;5090945;28;20065;-73
2023/02/23 14:31:14;;;;;;;4.68;2.03;;;14.90;51.70;;;;;;5095459;28;20040;-74
2023/02/23 14:33:40;;;;;;;4.97;2.53;;;14.90;51.60;;;;;;5082837;28;20445;-75
2023/02/23 14:36:27;;;;;;;5.68;2.85;;;14.80;51.50;;;;;;5082775;28;20043;-74
2023/02/23 14:38:59;;;;;;;6.80;2.00;;;14.80;51.10;;;;;;5084872;28;20094;-74
2023/02/23 14:41:54;;;;;;;9.25;2.58;;;14.80;51.30;;;;;;5082692;28;20464;-75